createdAt,value
2018-11-22T12:17:00.538Z,88.60
2018-11-22T12:19:28.747Z,88.70
2018-11-22T12:21:56.936Z,89.50
2018-11-22T12:24:25.171Z,89.20
2018-11-22T12:26:53.412Z,89.20
2018-11-22T12:29:21.699Z,89.20
2018-11-22T12:31:49.953Z,89.40
2018-11-22T12:34:23.072Z,89.20
2018-11-22T12:37:00.770Z,89.70
2018-11-22T12:39:29.291Z,89.50
2018-11-22T12:41:57.497Z,89.50
2018-11-22T12:44:25.799Z,89.30
2018-11-22T12:46:54.024Z,89.30
2018-11-22T12:49:22.240Z,89.50
2018-11-22T12:51:50.494Z,89.50
2018-11-22T12:54:18.739Z,89.40
2018-11-22T12:56:47.010Z,89.30
2018-11-22T12:59:15.247Z,89.70
2018-11-22T13:01:43.426Z,90.20
2018-11-22T13:04:11.623Z,90.10
2018-11-22T13:06:39.813Z,90.30
2018-11-22T13:09:08.747Z,90.20
2018-11-22T13:11:37.240Z,90.20
2018-11-22T13:14:05.491Z,90.10
2018-11-22T13:16:33.728Z,90.40
2018-11-22T13:19:01.858Z,90.50
2018-11-22T13:21:30.097Z,90.50
2018-11-22T13:23:58.263Z,90.40
2018-11-22T13:26:26.491Z,90.40
2018-11-22T13:28:54.743Z,90.70
2018-11-22T13:31:22.923Z,90.80
2018-11-22T13:33:51.217Z,90.90
2018-11-22T13:36:19.405Z,90.90
2018-11-22T13:38:47.593Z,91.10
2018-11-22T13:41:15.815Z,91.10
2018-11-22T13:43:44.021Z,91.00
2018-11-22T13:46:12.236Z,91.10
2018-11-22T13:48:40.483Z,90.80
2018-11-22T13:51:08.687Z,91.30
2018-11-22T13:53:36.878Z,91.10
2018-11-22T13:56:05.650Z,91.90
2018-11-22T13:58:33.850Z,91.60
2018-11-22T14:01:02.054Z,91.60
2018-11-22T14:03:30.314Z,91.60
2018-11-22T14:05:58.565Z,91.80
2018-11-22T14:08:26.734Z,91.70
2018-11-22T14:10:58.409Z,91.70
2018-11-22T14:13:23.134Z,91.60
2018-11-22T14:15:51.400Z,91.80
2018-11-22T14:18:19.611Z,91.80
2018-11-22T14:20:47.809Z,91.90
2018-11-22T14:23:16.083Z,91.60
2018-11-22T14:25:49.055Z,91.70
2018-11-22T14:28:12.674Z,91.70
2018-11-22T14:30:41.447Z,92.00
2018-11-22T14:33:09.729Z,92.10
2018-11-22T14:35:39.573Z,92.20
2018-11-22T14:38:07.810Z,92.20
2018-11-22T14:40:36.483Z,92.20
2018-11-22T14:43:04.975Z,92.10
2018-11-22T14:45:33.834Z,92.20
2018-11-22T14:48:04.096Z,92.40
2018-11-22T14:53:24.788Z,92.30
2018-11-22T14:55:53.434Z,92.40
2018-11-22T14:58:22.058Z,92.40
2018-11-22T15:00:50.237Z,92.70
2018-11-22T15:03:18.442Z,92.60
2018-11-22T15:05:46.681Z,92.30
2018-11-22T15:08:14.860Z,92.50
2018-11-22T15:10:42.975Z,92.90
2018-11-22T15:13:11.221Z,92.90
2018-11-22T15:15:39.362Z,92.80
2018-11-22T15:18:07.620Z,92.90
2018-11-22T15:20:35.883Z,93.00
2018-11-22T15:23:04.192Z,93.00
2018-11-22T15:25:32.491Z,92.80
2018-11-22T15:28:00.725Z,92.80
2018-11-22T15:30:30.061Z,93.00
2018-11-22T15:32:58.459Z,93.10
2018-11-22T15:35:28.090Z,93.10
2018-11-22T15:37:56.322Z,93.10
2018-11-22T15:40:25.461Z,93.00
2018-11-22T15:42:56.969Z,92.90
2018-11-22T15:45:26.266Z,92.90
2018-11-22T15:47:54.462Z,93.00
2018-11-22T15:50:23.994Z,93.20
2018-11-22T15:52:52.243Z,93.20
2018-11-22T15:55:21.339Z,93.10
2018-11-22T15:57:50.438Z,93.10
2018-11-22T16:00:21.465Z,93.20
2018-11-22T16:02:50.169Z,93.10
2018-11-22T16:05:19.012Z,93.00
2018-11-22T16:07:47.293Z,93.20
2018-11-22T16:10:26.261Z,93.20
2018-11-22T16:12:50.409Z,93.30
2018-11-22T16:15:20.603Z,93.30
2018-11-22T16:17:48.839Z,93.40
2018-11-22T16:20:17.013Z,93.40
2018-11-22T16:22:45.281Z,93.30
2018-11-22T16:25:13.757Z,93.20
2018-11-22T16:27:42.167Z,93.30
2018-11-22T16:30:21.989Z,93.10
2018-11-22T16:32:50.355Z,93.50
2018-11-22T16:35:19.147Z,93.10
2018-11-22T16:37:47.809Z,93.20
2018-11-22T16:40:17.446Z,93.10
2018-11-22T16:42:46.982Z,93.20
2018-11-22T16:45:20.633Z,93.30
2018-11-22T16:47:48.813Z,93.30
2018-11-22T16:50:18.188Z,93.40
2018-11-22T16:52:46.346Z,93.30
2018-11-22T16:55:14.854Z,93.40
2018-11-22T16:57:44.284Z,93.60
2018-11-22T17:00:37.545Z,93.80
2018-11-22T17:03:08.182Z,93.60
2018-11-22T17:05:37.049Z,93.40
2018-11-22T17:08:06.232Z,93.40
2018-11-22T17:10:34.825Z,93.60
2018-11-22T17:13:03.865Z,93.60
2018-11-22T17:15:33.547Z,93.40
2018-11-22T17:18:02.130Z,93.40
2018-11-22T17:20:31.150Z,93.40
2018-11-22T17:22:59.634Z,93.20
2018-11-22T17:25:29.089Z,93.30
2018-11-22T17:27:59.422Z,93.40
2018-11-22T17:30:29.312Z,93.50
2018-11-22T17:32:57.531Z,93.50
2018-11-22T17:35:26.694Z,93.50
2018-11-22T17:37:56.022Z,93.70
2018-11-22T17:40:27.651Z,93.60
2018-11-22T17:42:55.913Z,93.70
2018-11-22T17:45:28.592Z,93.80
2018-11-22T17:47:56.791Z,94.10
2018-11-22T17:50:26.673Z,93.80
2018-11-22T17:52:54.800Z,94.00
2018-11-22T17:55:24.610Z,93.90
2018-11-22T17:57:52.798Z,93.90
2018-11-22T18:00:24.314Z,93.70
2018-11-22T18:02:53.384Z,93.90
2018-11-22T18:05:27.173Z,94.00
2018-11-22T18:07:49.922Z,94.30
2018-11-22T18:10:20.562Z,94.30
2018-11-22T18:12:49.578Z,94.40
2018-11-22T18:15:18.884Z,94.20
2018-11-22T18:17:47.354Z,94.30
2018-11-22T18:20:18.210Z,94.50
2018-11-22T18:22:47.299Z,94.50
2018-11-22T18:25:19.501Z,94.40
2018-11-22T18:27:47.742Z,94.60
2018-11-22T18:30:18.500Z,94.60
2018-11-22T18:32:49.222Z,94.60
2018-11-22T18:35:16.692Z,94.50
2018-11-22T18:37:45.019Z,94.70
2018-11-22T18:40:15.441Z,94.90
2018-11-22T18:42:44.373Z,94.80
2018-11-22T18:45:14.210Z,94.70
2018-11-22T18:47:43.314Z,94.80
2018-11-22T18:50:19.759Z,94.80
2018-11-22T18:52:48.051Z,94.80
2018-11-22T18:55:16.294Z,95.00
2018-11-22T18:57:44.985Z,95.00
2018-11-22T19:00:16.939Z,95.10
2018-11-22T19:02:45.184Z,95.00
2018-11-22T19:05:14.632Z,95.00
2018-11-22T19:07:44.149Z,95.00
2018-11-22T19:10:14.773Z,95.00
2018-11-22T19:12:43.789Z,95.10
2018-11-22T19:15:13.463Z,95.20
2018-11-22T19:17:41.707Z,95.20
2018-11-22T19:20:19.335Z,95.40
2018-11-22T19:22:48.457Z,95.30
2018-11-22T19:25:17.193Z,95.30
2018-11-22T19:27:45.676Z,95.60
2018-11-22T19:30:18.995Z,95.30
2018-11-22T19:32:48.299Z,95.40
2018-11-22T19:35:17.594Z,95.40
2018-11-22T19:37:46.245Z,95.50
2018-11-22T19:40:17.836Z,95.60
2018-11-22T19:42:47.613Z,95.40
2018-11-22T19:45:17.085Z,95.40
2018-11-22T19:47:45.426Z,95.40
2018-11-22T19:50:15.378Z,95.40
2018-11-22T19:52:45.591Z,95.60
2018-11-22T19:55:15.679Z,95.50
2018-11-22T19:57:45.154Z,95.50
2018-11-22T20:00:14.637Z,95.40
2018-11-22T20:02:43.539Z,95.50
2018-11-22T20:05:13.099Z,95.30
2018-11-22T20:07:42.111Z,95.30
2018-11-22T20:10:19.596Z,95.50
2018-11-22T20:12:47.828Z,95.30
2018-11-22T20:15:16.319Z,95.30
2018-11-22T20:17:45.238Z,95.60
2018-11-22T20:20:15.088Z,95.80
2018-11-22T20:22:43.347Z,95.80
2018-11-22T20:25:11.558Z,95.70
2018-11-22T20:27:40.433Z,96.10
2018-11-22T20:30:14.216Z,95.70
2018-11-22T20:32:42.851Z,95.70
2018-11-22T20:35:13.079Z,95.90
2018-11-22T20:37:41.718Z,95.70
2018-11-22T20:40:10.820Z,95.90
2018-11-22T20:42:39.664Z,95.60
2018-11-22T20:45:10.113Z,95.70
2018-11-22T20:47:38.908Z,95.70
2018-11-22T20:50:09.263Z,95.60
2018-11-22T20:52:37.561Z,95.60
2018-11-22T20:55:08.124Z,95.60
2018-11-22T20:57:36.440Z,95.60
2018-11-22T21:00:06.851Z,95.70
2018-11-22T21:02:35.700Z,95.80
2018-11-22T21:05:03.916Z,95.90
2018-11-22T21:07:32.154Z,95.70
2018-11-22T21:10:00.360Z,95.60
2018-11-22T21:12:28.562Z,95.70
2018-11-22T21:14:56.830Z,95.60
2018-11-22T21:17:25.095Z,95.50
2018-11-22T21:19:53.349Z,95.50
2018-11-22T21:22:21.619Z,95.90
2018-11-22T21:24:49.811Z,95.70
2018-11-22T21:27:18.072Z,95.60
2018-11-22T21:29:46.299Z,95.40
2018-11-22T21:32:14.526Z,95.40
2018-11-22T21:34:42.721Z,95.30
2018-11-22T21:37:10.925Z,95.20
2018-11-22T21:39:39.130Z,95.40
2018-11-22T21:42:07.305Z,95.60
2018-11-22T21:44:35.482Z,95.50
2018-11-22T21:47:03.734Z,95.40
2018-11-22T21:49:31.895Z,95.50
2018-11-22T21:52:00.107Z,95.60
2018-11-22T21:54:28.257Z,95.50
2018-11-22T21:56:56.535Z,95.40
2018-11-22T21:59:24.704Z,95.20
2018-11-22T22:01:52.952Z,95.30
2018-11-22T22:04:21.211Z,95.50
2018-11-22T22:06:49.479Z,95.80
2018-11-22T22:09:17.744Z,95.40
2018-11-22T22:11:45.929Z,95.20
2018-11-22T22:14:14.188Z,95.30
2018-11-22T22:16:42.433Z,95.30
2018-11-22T22:19:10.633Z,95.40
2018-11-22T22:21:38.948Z,95.50
2018-11-22T22:24:07.137Z,95.40
2018-11-22T22:26:35.291Z,95.30
2018-11-22T22:29:03.485Z,95.20
2018-11-22T22:31:31.671Z,95.40
2018-11-22T22:34:00.044Z,95.30
2018-11-22T22:36:28.230Z,95.30
2018-11-22T22:38:57.025Z,95.40
2018-11-22T22:41:25.213Z,95.30
2018-11-22T22:43:53.345Z,95.20
2018-11-22T22:46:21.575Z,95.40
2018-11-22T22:48:49.761Z,95.50
2018-11-22T22:51:17.977Z,95.50
2018-11-22T22:53:46.184Z,95.50
2018-11-22T22:56:14.469Z,95.30
2018-11-22T22:58:42.625Z,95.30
2018-11-22T23:01:10.842Z,95.20
2018-11-22T23:03:40.364Z,95.30
2018-11-22T23:06:08.772Z,95.30
2018-11-22T23:08:36.956Z,95.40
2018-11-22T23:11:05.327Z,95.40
2018-11-22T23:13:33.542Z,95.40
2018-11-22T23:16:01.738Z,95.50
2018-11-22T23:18:29.953Z,95.50
2018-11-22T23:20:58.080Z,95.40
2018-11-22T23:23:26.342Z,95.30
2018-11-22T23:25:54.572Z,95.30
2018-11-22T23:28:22.810Z,95.40
2018-11-22T23:30:51.036Z,95.30
2018-11-22T23:33:19.208Z,95.40
2018-11-22T23:35:47.412Z,95.40
2018-11-22T23:38:15.682Z,95.50
2018-11-22T23:40:43.978Z,95.50
2018-11-22T23:43:12.126Z,95.50
2018-11-22T23:45:40.300Z,95.50
2018-11-22T23:48:08.510Z,95.60
2018-11-22T23:50:36.658Z,95.60
2018-11-22T23:53:05.180Z,95.50
2018-11-22T23:55:33.345Z,95.40
2018-11-22T23:58:01.556Z,95.40
